createdAt,value
2022-11-16T00:00:11.664Z,13.90
2022-11-16T00:01:23.462Z,13.90
2022-11-16T00:02:26.192Z,13.90
2022-11-16T00:03:28.291Z,13.90
2022-11-16T00:04:52.149Z,13.90
2022-11-16T00:05:59.985Z,13.90
2022-11-16T00:07:04.723Z,13.90
2022-11-16T00:08:06.418Z,13.80
2022-11-16T00:09:23.534Z,13.80
2022-11-16T00:10:25.547Z,13.80
2022-11-16T00:11:28.257Z,13.80
2022-11-16T00:12:30.000Z,13.80
2022-11-16T00:13:33.683Z,13.80
2022-11-16T00:14:37.708Z,13.80
2022-11-16T00:15:39.432Z,13.80
2022-11-16T00:16:41.199Z,13.80
2022-11-16T00:17:42.990Z,13.80
2022-11-16T00:18:45.536Z,13.80
2022-11-16T00:19:47.718Z,13.80
2022-11-16T00:20:50.360Z,13.70
2022-11-16T00:21:53.967Z,13.70
2022-11-16T00:22:55.607Z,13.70
2022-11-16T00:23:57.810Z,13.80
2022-11-16T00:24:59.557Z,13.80
2022-11-16T00:26:12.433Z,13.80
2022-11-16T00:27:14.280Z,13.80
2022-11-16T00:28:16.466Z,13.80
2022-11-16T00:29:22.225Z,13.80
2022-11-16T00:30:24.257Z,13.80
2022-11-16T00:31:26.021Z,13.80
2022-11-16T00:32:28.075Z,13.80
2022-11-16T00:33:30.444Z,13.80
2022-11-16T00:34:34.439Z,13.80
2022-11-16T00:35:40.104Z,13.80
2022-11-16T00:36:42.333Z,13.80
2022-11-16T00:37:44.046Z,13.80
2022-11-16T00:38:46.080Z,13.80
2022-11-16T00:39:47.832Z,13.80
2022-11-16T00:40:51.355Z,13.90
2022-11-16T00:41:53.336Z,13.80
2022-11-16T00:42:55.038Z,13.90
2022-11-16T00:43:56.772Z,13.90
2022-11-16T00:44:58.554Z,13.90
2022-11-16T00:46:01.656Z,13.90
2022-11-16T00:47:03.429Z,13.90
2022-11-16T00:48:05.865Z,13.90
2022-11-16T00:49:08.214Z,13.90
2022-11-16T00:50:10.055Z,13.90
2022-11-16T00:51:12.100Z,13.90
2022-11-16T00:52:14.042Z,13.90
2022-11-16T00:53:18.781Z,13.90
2022-11-16T00:54:20.526Z,13.90
2022-11-16T00:55:23.881Z,13.90
2022-11-16T00:56:26.199Z,13.90
2022-11-16T00:57:29.220Z,13.80
2022-11-16T00:58:31.530Z,13.80
2022-11-16T00:59:33.762Z,14.00
2022-11-16T01:00:35.810Z,13.80
2022-11-16T01:01:37.792Z,13.90
2022-11-16T01:02:40.915Z,13.80
2022-11-16T01:03:42.939Z,13.80
2022-11-16T01:04:50.903Z,13.80
2022-11-16T01:05:52.618Z,13.80
2022-11-16T01:06:54.449Z,13.80
2022-11-16T01:07:57.208Z,13.80
2022-11-16T01:08:58.972Z,13.80
2022-11-16T01:10:00.740Z,13.90
2022-11-16T01:11:21.442Z,13.90
2022-11-16T01:12:23.169Z,13.90
2022-11-16T01:13:24.807Z,13.90
2022-11-16T01:14:26.547Z,13.90
2022-11-16T01:15:28.455Z,13.90
2022-11-16T01:16:30.727Z,13.90
2022-11-16T01:17:32.828Z,13.90
2022-11-16T01:18:34.914Z,13.80
2022-11-16T01:19:37.241Z,13.90
2022-11-16T01:20:41.293Z,13.80
2022-11-16T01:21:44.362Z,13.80
2022-11-16T01:22:46.743Z,13.80
2022-11-16T01:23:49.113Z,13.80
2022-11-16T01:24:50.867Z,13.80
2022-11-16T01:26:03.802Z,13.80
2022-11-16T01:27:08.236Z,13.80
2022-11-16T01:28:10.206Z,13.80
2022-11-16T01:29:12.091Z,13.80
2022-11-16T01:30:15.650Z,13.80
2022-11-16T01:31:17.451Z,13.80
2022-11-16T01:32:19.560Z,13.70
2022-11-16T01:33:21.450Z,13.80
2022-11-16T01:34:23.998Z,13.70
2022-11-16T01:35:25.679Z,13.70
2022-11-16T01:36:27.677Z,13.80
2022-11-16T01:37:30.146Z,13.80
2022-11-16T01:38:32.678Z,13.80
2022-11-16T01:39:34.685Z,13.80
2022-11-16T01:40:37.617Z,13.70
2022-11-16T01:41:43.501Z,13.70
2022-11-16T01:42:46.529Z,13.70
2022-11-16T01:43:56.116Z,13.70
2022-11-16T01:45:35.629Z,13.70
2022-11-16T01:46:38.996Z,13.70
2022-11-16T01:47:40.817Z,13.70
2022-11-16T01:48:43.038Z,13.60
2022-11-16T01:49:51.217Z,13.60
2022-11-16T01:50:59.687Z,13.50
2022-11-16T01:52:08.083Z,13.50
2022-11-16T01:53:11.998Z,13.50
2022-11-16T01:54:14.496Z,13.50
2022-11-16T01:55:16.983Z,13.40
2022-11-16T01:56:18.975Z,13.50
2022-11-16T01:57:25.638Z,13.50
2022-11-16T01:58:27.882Z,13.50
2022-11-16T01:59:30.606Z,13.50
2022-11-16T02:00:32.396Z,13.50
2022-11-16T02:01:35.708Z,13.50
2022-11-16T02:02:37.674Z,13.50
2022-11-16T02:03:39.669Z,13.50
2022-11-16T02:04:53.775Z,13.50
2022-11-16T02:06:19.535Z,13.50
2022-11-16T02:07:59.102Z,13.50
2022-11-16T02:09:41.489Z,13.50
2022-11-16T02:10:59.013Z,13.40
2022-11-16T02:12:03.809Z,13.40
2022-11-16T02:13:32.889Z,13.40
2022-11-16T02:14:52.190Z,13.40
2022-11-16T02:16:16.939Z,13.40
2022-11-16T02:20:24.872Z,13.30
2022-11-16T02:21:42.615Z,13.20
2022-11-16T02:22:44.241Z,13.20
2022-11-16T02:23:53.958Z,13.10
2022-11-16T02:25:34.649Z,13.10
2022-11-16T02:27:22.382Z,13.10
2022-11-16T02:28:33.009Z,13.10
2022-11-16T02:29:39.778Z,13.20
2022-11-16T02:30:47.184Z,13.10
2022-11-16T02:32:04.879Z,13.20
2022-11-16T02:33:12.129Z,13.20
2022-11-16T02:34:17.645Z,13.20
2022-11-16T02:35:28.347Z,13.20
2022-11-16T02:36:31.711Z,13.20
2022-11-16T02:37:39.318Z,13.20
2022-11-16T02:38:50.354Z,13.20
2022-11-16T02:39:59.573Z,13.20
2022-11-16T02:41:10.744Z,13.20
2022-11-16T02:42:18.019Z,13.20
2022-11-16T02:43:26.518Z,13.30
2022-11-16T02:44:38.902Z,13.30
2022-11-16T02:45:45.623Z,13.30
2022-11-16T02:46:52.629Z,13.30
2022-11-16T02:48:00.075Z,13.30
2022-11-16T02:49:05.213Z,13.30
2022-11-16T02:50:12.004Z,13.30
2022-11-16T02:51:14.630Z,13.30
2022-11-16T02:52:17.833Z,13.30
2022-11-16T02:53:24.135Z,13.30
2022-11-16T02:54:26.123Z,13.30
2022-11-16T02:55:30.292Z,13.30
2022-11-16T02:56:43.120Z,13.30
2022-11-16T02:57:57.372Z,13.30
2022-11-16T02:59:00.162Z,13.40
2022-11-16T03:00:06.433Z,13.40
2022-11-16T03:01:23.444Z,13.40
2022-11-16T03:02:42.291Z,13.40
2022-11-16T03:03:50.641Z,13.40
2022-11-16T03:05:01.761Z,13.40
2022-11-16T03:06:18.548Z,13.40
2022-11-16T03:07:25.655Z,13.40
2022-11-16T03:08:51.281Z,13.30
2022-11-16T03:09:56.518Z,13.40
2022-11-16T03:11:23.517Z,13.30
2022-11-16T03:12:30.660Z,13.30
2022-11-16T03:13:35.025Z,13.30
2022-11-16T03:14:49.235Z,13.30
2022-11-16T03:15:57.460Z,13.30
2022-11-16T03:17:02.299Z,13.30
2022-11-16T03:18:05.735Z,13.30
2022-11-16T03:19:11.115Z,13.30
2022-11-16T03:20:23.523Z,13.30
2022-11-16T03:21:49.696Z,13.30
2022-11-16T03:23:20.132Z,13.30
2022-11-16T03:24:23.542Z,13.20
2022-11-16T03:25:28.030Z,13.20
2022-11-16T03:26:36.136Z,13.20
2022-11-16T03:27:40.057Z,13.20
2022-11-16T03:28:59.866Z,13.20
2022-11-16T03:30:01.703Z,13.20
2022-11-16T03:31:21.244Z,13.20
2022-11-16T03:32:31.469Z,13.20
2022-11-16T03:33:49.220Z,13.20
2022-11-16T03:35:03.396Z,13.20
2022-11-16T03:36:08.152Z,13.20
2022-11-16T03:37:11.604Z,13.20
2022-11-16T03:38:15.533Z,13.20
2022-11-16T03:39:23.595Z,13.20
2022-11-16T03:40:29.228Z,13.20
2022-11-16T03:41:33.113Z,13.20
2022-11-16T03:42:35.739Z,13.20
2022-11-16T03:43:38.992Z,13.20
2022-11-16T03:44:43.828Z,13.20
2022-11-16T03:45:49.077Z,13.20
2022-11-16T03:46:51.278Z,13.20
2022-11-16T03:47:55.969Z,13.20
2022-11-16T03:48:59.029Z,13.20
2022-11-16T03:50:01.969Z,13.20
2022-11-16T03:51:05.105Z,13.20
2022-11-16T03:52:07.179Z,13.30
2022-11-16T03:53:08.871Z,13.30
2022-11-16T03:54:11.128Z,13.30
2022-11-16T03:55:13.197Z,13.20
2022-11-16T03:56:14.920Z,13.20
2022-11-16T03:57:18.619Z,13.20
2022-11-16T03:58:20.492Z,13.30
2022-11-16T03:59:22.270Z,13.20
2022-11-16T04:00:24.084Z,13.30
2022-11-16T04:01:26.321Z,13.20
2022-11-16T04:02:28.351Z,13.20
2022-11-16T04:03:30.090Z,13.20
2022-11-16T04:04:50.805Z,13.20
2022-11-16T04:06:11.523Z,13.20
2022-11-16T04:07:31.822Z,13.20
2022-11-16T04:08:52.244Z,13.20
2022-11-16T04:10:17.082Z,13.10
2022-11-16T04:11:40.761Z,13.10
2022-11-16T04:13:03.442Z,13.10
2022-11-16T04:14:24.237Z,13.10
2022-11-16T04:15:45.308Z,13.20
2022-11-16T04:17:06.185Z,13.10
2022-11-16T04:18:28.776Z,13.20
2022-11-16T04:19:51.783Z,13.10
2022-11-16T04:21:16.750Z,13.10
2022-11-16T04:22:44.696Z,13.20
2022-11-16T04:24:07.300Z,13.10
2022-11-16T04:25:21.753Z,13.10
2022-11-16T04:26:46.373Z,13.00
2022-11-16T04:28:09.023Z,13.00
2022-11-16T04:29:12.825Z,13.00
2022-11-16T04:30:14.847Z,13.10
2022-11-16T04:31:35.409Z,13.00
2022-11-16T04:32:55.969Z,13.10
2022-11-16T04:34:16.943Z,13.10
2022-11-16T04:35:37.522Z,13.10
2022-11-16T04:36:58.460Z,13.20
2022-11-16T04:38:00.420Z,13.20
2022-11-16T04:39:04.165Z,13.20
2022-11-16T04:40:08.750Z,13.20
2022-11-16T04:41:30.427Z,13.30
2022-11-16T04:42:32.167Z,13.30
2022-11-16T04:43:35.313Z,13.30
2022-11-16T04:44:58.480Z,13.30
2022-11-16T04:46:19.188Z,13.30
2022-11-16T04:47:21.269Z,13.40
2022-11-16T04:48:23.305Z,13.30
2022-11-16T04:49:25.255Z,13.30
2022-11-16T04:50:27.103Z,13.40
2022-11-16T04:51:28.829Z,13.40
2022-11-16T04:52:30.615Z,13.40
2022-11-16T04:53:32.548Z,13.30
2022-11-16T04:54:34.472Z,13.40
2022-11-16T04:55:36.441Z,13.40
2022-11-16T04:56:42.035Z,13.40
2022-11-16T04:57:45.200Z,13.40
2022-11-16T04:58:47.079Z,13.40
2022-11-16T04:59:50.572Z,13.50
2022-11-16T05:00:52.220Z,13.50
2022-11-16T05:02:09.415Z,13.50
2022-11-16T05:03:11.148Z,13.50
2022-11-16T05:04:13.128Z,13.50
2022-11-16T05:05:15.711Z,13.50
2022-11-16T05:06:17.591Z,13.50
2022-11-16T05:07:19.587Z,13.50
2022-11-16T05:08:21.305Z,13.50
2022-11-16T05:09:23.194Z,13.50
2022-11-16T05:10:24.988Z,13.60
2022-11-16T05:11:26.894Z,13.60
2022-11-16T05:12:29.278Z,13.60
2022-11-16T05:13:30.980Z,13.50
2022-11-16T05:14:32.851Z,13.60
2022-11-16T05:15:34.560Z,13.60
2022-11-16T05:16:36.381Z,13.60
2022-11-16T05:17:38.253Z,13.60
2022-11-16T05:18:40.092Z,13.60
2022-11-16T05:20:01.118Z,13.60
2022-11-16T05:21:02.934Z,13.60
2022-11-16T05:22:04.794Z,13.60
2022-11-16T05:23:26.435Z,13.60
2022-11-16T05:24:35.339Z,13.60
2022-11-16T05:25:37.778Z,13.60
2022-11-16T05:26:41.054Z,13.60
2022-11-16T05:27:43.084Z,13.60
2022-11-16T05:28:44.773Z,13.60
2022-11-16T05:29:49.736Z,13.60
2022-11-16T05:30:51.524Z,13.60
2022-11-16T05:31:54.490Z,13.60
2022-11-16T05:32:56.155Z,13.60
2022-11-16T05:33:57.821Z,13.60
2022-11-16T05:35:00.984Z,13.60
2022-11-16T05:36:04.421Z,13.60
2022-11-16T05:37:06.324Z,13.60
2022-11-16T05:38:08.161Z,13.60
2022-11-16T05:39:11.738Z,13.60
2022-11-16T05:40:13.531Z,13.60
2022-11-16T05:41:15.297Z,13.60
2022-11-16T05:42:17.203Z,13.60
2022-11-16T05:43:18.911Z,13.60
2022-11-16T05:44:20.767Z,13.60
2022-11-16T05:45:22.562Z,13.60
2022-11-16T05:46:26.742Z,13.60
2022-11-16T05:47:28.514Z,13.60
2022-11-16T05:48:31.644Z,13.60
2022-11-16T05:49:33.708Z,13.60
2022-11-16T05:50:39.882Z,13.60
2022-11-16T05:51:47.450Z,13.60
2022-11-16T05:52:49.336Z,13.60
2022-11-16T05:53:52.593Z,13.60
2022-11-16T05:54:55.535Z,13.60
2022-11-16T05:55:57.411Z,13.60
2022-11-16T05:56:59.347Z,13.60
2022-11-16T05:58:04.633Z,13.60
2022-11-16T05:59:06.512Z,13.60
2022-11-16T06:00:09.431Z,13.60
2022-11-16T06:01:11.268Z,13.60
2022-11-16T06:02:13.041Z,13.60
2022-11-16T06:03:15.088Z,13.60
2022-11-16T06:05:40.205Z,13.60
2022-11-16T06:06:42.765Z,13.60
2022-11-16T06:07:46.191Z,13.60
2022-11-16T06:08:47.875Z,13.60
2022-11-16T06:09:49.829Z,13.60
2022-11-16T06:10:51.886Z,13.60
2022-11-16T06:11:53.753Z,13.60
2022-11-16T06:12:55.569Z,13.60
2022-11-16T06:13:58.572Z,13.60
2022-11-16T06:15:01.330Z,13.60
2022-11-16T06:16:05.180Z,13.60
2022-11-16T06:17:07.289Z,13.60
2022-11-16T06:18:10.824Z,13.60
2022-11-16T06:19:12.768Z,13.60
2022-11-16T06:20:14.568Z,13.60
2022-11-16T06:21:18.655Z,13.60
2022-11-16T06:22:21.962Z,13.60
2022-11-16T06:23:23.878Z,13.60
2022-11-16T06:24:25.667Z,13.60
2022-11-16T06:25:27.333Z,13.60
2022-11-16T06:26:30.486Z,13.60
2022-11-16T06:27:32.400Z,13.60
2022-11-16T06:28:34.989Z,13.60
2022-11-16T06:29:41.841Z,13.60
2022-11-16T06:30:43.608Z,13.60
2022-11-16T06:31:47.030Z,13.60
2022-11-16T06:32:53.590Z,13.60
2022-11-16T06:33:55.661Z,13.70
2022-11-16T06:34:57.836Z,13.80
2022-11-16T06:36:02.896Z,13.70
2022-11-16T06:37:09.246Z,13.70
2022-11-16T06:38:11.574Z,13.70
2022-11-16T06:39:18.157Z,13.70
2022-11-16T06:40:20.139Z,13.70
2022-11-16T06:41:22.306Z,13.80
2022-11-16T06:42:24.617Z,13.80
2022-11-16T06:43:27.023Z,13.80
2022-11-16T06:44:28.942Z,13.80
2022-11-16T06:45:31.183Z,13.80
2022-11-16T06:46:33.083Z,13.80
2022-11-16T06:47:35.540Z,13.80
2022-11-16T06:48:38.130Z,13.80
2022-11-16T06:49:40.821Z,13.80
2022-11-16T06:50:45.708Z,13.80
2022-11-16T06:51:50.660Z,13.80
2022-11-16T06:52:52.677Z,13.80
2022-11-16T06:53:55.903Z,13.80
2022-11-16T06:54:57.854Z,13.80
2022-11-16T06:56:06.597Z,13.80
2022-11-16T06:57:08.492Z,13.80
2022-11-16T06:58:10.598Z,13.80
2022-11-16T06:59:13.370Z,13.80
2022-11-16T07:00:15.946Z,13.80
2022-11-16T07:01:17.694Z,13.80
2022-11-16T07:02:21.480Z,13.80
2022-11-16T07:03:23.262Z,13.80
2022-11-16T07:04:37.711Z,13.80
2022-11-16T07:05:41.696Z,13.80
2022-11-16T07:06:43.553Z,13.80
2022-11-16T07:07:45.510Z,13.80
2022-11-16T07:08:47.435Z,13.80
2022-11-16T07:09:49.203Z,13.80
2022-11-16T07:10:51.048Z,13.80
2022-11-16T07:11:52.831Z,13.80
2022-11-16T07:12:55.846Z,13.80
2022-11-16T07:13:57.538Z,14.00
2022-11-16T07:14:59.392Z,13.80
2022-11-16T07:16:05.352Z,13.90
2022-11-16T07:17:09.713Z,13.90
2022-11-16T07:18:11.724Z,13.90
2022-11-16T07:19:13.547Z,13.90
2022-11-16T07:20:16.009Z,13.90
2022-11-16T07:21:18.611Z,13.80
2022-11-16T07:22:21.428Z,13.80
2022-11-16T07:23:23.831Z,13.80
2022-11-16T07:24:26.148Z,13.80
2022-11-16T07:25:27.978Z,13.80
2022-11-16T07:26:31.238Z,13.80
2022-11-16T07:27:33.016Z,13.90
2022-11-16T07:28:35.712Z,13.90
2022-11-16T07:29:37.686Z,13.80
2022-11-16T07:30:39.472Z,13.80
2022-11-16T07:31:41.411Z,13.80
2022-11-16T07:32:45.369Z,13.90
2022-11-16T07:33:47.113Z,13.90
2022-11-16T07:34:48.868Z,13.80
2022-11-16T07:35:51.681Z,14.00
2022-11-16T07:36:53.710Z,13.90
2022-11-16T07:37:55.640Z,13.90
2022-11-16T07:38:59.237Z,13.90
2022-11-16T07:40:01.311Z,13.90
2022-11-16T07:41:08.949Z,13.90
2022-11-16T07:42:12.476Z,14.00
2022-11-16T07:43:16.782Z,14.00
2022-11-16T07:44:18.766Z,14.00
2022-11-16T07:45:20.627Z,14.00
2022-11-16T07:47:45.623Z,14.00
2022-11-16T07:48:47.568Z,14.00
2022-11-16T07:49:50.568Z,14.00
2022-11-16T07:50:53.292Z,14.00
2022-11-16T07:51:55.273Z,14.00
2022-11-16T07:52:57.346Z,14.10
2022-11-16T07:53:59.237Z,14.10
2022-11-16T07:55:02.340Z,14.10
2022-11-16T07:56:05.651Z,14.10
2022-11-16T07:57:07.398Z,14.10
2022-11-16T07:58:09.246Z,14.10
2022-11-16T07:59:11.416Z,14.00
2022-11-16T08:00:16.247Z,14.00
2022-11-16T08:01:19.354Z,14.00
2022-11-16T08:02:21.235Z,14.00
2022-11-16T08:03:24.797Z,14.00
2022-11-16T08:04:26.921Z,14.00
2022-11-16T08:05:28.856Z,14.00
2022-11-16T08:06:31.955Z,14.00
2022-11-16T08:07:35.592Z,14.00
2022-11-16T08:08:37.870Z,14.00
2022-11-16T08:09:40.968Z,14.00
2022-11-16T08:10:43.732Z,14.00
2022-11-16T08:11:47.613Z,14.00
2022-11-16T08:12:50.010Z,14.00
2022-11-16T08:13:51.804Z,14.00
2022-11-16T08:14:53.565Z,13.90
2022-11-16T08:16:01.660Z,14.00
2022-11-16T08:17:05.069Z,13.90
2022-11-16T08:18:07.733Z,14.00
2022-11-16T08:19:10.406Z,14.00
2022-11-16T08:20:12.528Z,14.00
2022-11-16T08:21:16.085Z,14.00
2022-11-16T08:22:18.043Z,14.00
2022-11-16T08:23:21.182Z,14.00
2022-11-16T08:24:23.297Z,14.00
2022-11-16T08:25:26.415Z,14.10
2022-11-16T08:26:30.331Z,14.10
2022-11-16T08:27:33.153Z,14.10
2022-11-16T08:28:36.778Z,14.20
2022-11-16T08:29:38.725Z,14.20
2022-11-16T08:30:41.415Z,14.20
2022-11-16T08:31:45.721Z,14.30
2022-11-16T08:32:47.470Z,14.30
2022-11-16T08:33:50.448Z,14.30
2022-11-16T08:34:52.664Z,14.30
2022-11-16T08:35:55.531Z,14.30
2022-11-16T08:36:57.449Z,14.30
2022-11-16T08:37:59.238Z,14.40
2022-11-16T08:39:01.057Z,14.40
2022-11-16T08:40:03.804Z,14.40
2022-11-16T08:41:06.832Z,14.40
2022-11-16T08:42:09.752Z,14.50
2022-11-16T08:43:12.169Z,14.50
2022-11-16T08:44:15.735Z,14.60
2022-11-16T08:45:24.274Z,14.60
2022-11-16T08:46:26.446Z,14.60
2022-11-16T08:47:28.184Z,14.60
2022-11-16T08:48:30.075Z,14.70
2022-11-16T08:49:45.244Z,14.70
2022-11-16T08:51:16.440Z,14.70
2022-11-16T08:52:15.124Z,14.70
2022-11-16T08:53:17.242Z,14.90
2022-11-16T08:54:20.832Z,14.70
2022-11-16T08:55:22.950Z,14.70
2022-11-16T08:56:27.537Z,14.70
2022-11-16T08:57:30.472Z,14.70
2022-11-16T08:58:32.858Z,14.80
2022-11-16T08:59:34.943Z,14.80
2022-11-16T09:00:37.632Z,14.80
2022-11-16T09:01:39.934Z,14.80
2022-11-16T09:02:42.001Z,14.80
2022-11-16T09:05:12.246Z,14.80
2022-11-16T09:06:14.991Z,14.80
2022-11-16T09:07:16.784Z,14.80
2022-11-16T09:08:18.582Z,14.80
2022-11-16T09:09:20.711Z,14.80
2022-11-16T09:10:25.362Z,14.80
2022-11-16T09:11:27.367Z,14.80
2022-11-16T09:12:29.244Z,14.80
2022-11-16T09:13:31.103Z,14.80
2022-11-16T09:14:33.259Z,14.70
2022-11-16T09:15:35.353Z,14.90
2022-11-16T09:16:37.157Z,14.80
2022-11-16T09:17:39.201Z,14.80
2022-11-16T09:18:40.956Z,14.80
2022-11-16T09:19:42.878Z,14.80
2022-11-16T09:20:45.611Z,14.70
2022-11-16T09:21:48.866Z,14.70
2022-11-16T09:22:50.837Z,14.80
2022-11-16T09:23:57.430Z,14.80
2022-11-16T09:24:59.770Z,14.80
2022-11-16T09:26:03.818Z,14.80
2022-11-16T09:27:09.368Z,14.80
2022-11-16T09:28:11.551Z,14.80
2022-11-16T09:29:18.361Z,14.80
2022-11-16T09:30:20.150Z,14.90
2022-11-16T09:31:23.953Z,14.90
2022-11-16T09:32:25.972Z,14.90
2022-11-16T09:33:30.338Z,14.90
2022-11-16T09:34:34.524Z,14.90
2022-11-16T09:35:36.313Z,14.90
2022-11-16T09:36:38.183Z,14.90
2022-11-16T09:37:40.284Z,14.90
2022-11-16T09:40:08.177Z,15.00
2022-11-16T09:41:15.776Z,14.80
2022-11-16T09:42:31.703Z,14.90
2022-11-16T09:43:45.820Z,14.90
2022-11-16T09:44:54.218Z,15.00
2022-11-16T09:46:38.697Z,15.00
2022-11-16T09:47:51.961Z,15.00
2022-11-16T09:48:58.352Z,15.00
2022-11-16T09:50:03.871Z,15.00
2022-11-16T09:51:10.162Z,15.00
2022-11-16T09:52:25.349Z,14.90
2022-11-16T09:53:40.778Z,14.90
2022-11-16T09:54:47.498Z,14.90
2022-11-16T09:55:52.923Z,14.80
2022-11-16T09:56:59.186Z,14.80
2022-11-16T09:58:06.219Z,14.80
2022-11-16T09:59:16.701Z,14.80
2022-11-16T10:00:24.165Z,14.80
2022-11-16T10:01:41.554Z,14.70
2022-11-16T10:02:53.864Z,14.80
2022-11-16T10:04:42.033Z,14.80
2022-11-16T10:06:06.977Z,14.80
2022-11-16T10:07:23.442Z,14.90
2022-11-16T10:08:45.633Z,14.90
2022-11-16T10:09:49.439Z,15.00
2022-11-16T10:10:58.044Z,15.00
2022-11-16T10:12:18.196Z,15.00
2022-11-16T10:13:41.214Z,15.10
2022-11-16T10:15:13.968Z,15.10
2022-11-16T10:16:26.214Z,15.10
2022-11-16T10:17:39.600Z,15.10
2022-11-16T10:18:47.089Z,15.10
2022-11-16T10:20:01.187Z,15.10
2022-11-16T10:21:24.623Z,15.20
2022-11-16T10:22:47.055Z,15.20
2022-11-16T10:24:07.484Z,15.20
2022-11-16T10:25:24.314Z,15.20
2022-11-16T10:26:42.772Z,15.30
2022-11-16T10:28:04.558Z,15.30
2022-11-16T10:29:12.260Z,15.30
2022-11-16T10:30:19.993Z,15.30
2022-11-16T10:31:46.365Z,15.40
2022-11-16T10:33:10.979Z,15.30
2022-11-16T10:34:22.583Z,15.30
2022-11-16T10:35:42.914Z,15.30
2022-11-16T10:36:47.655Z,15.30
2022-11-16T10:37:52.159Z,15.40
2022-11-16T10:38:57.967Z,15.40
2022-11-16T10:40:00.683Z,15.40
2022-11-16T10:41:18.300Z,15.30
2022-11-16T10:42:33.565Z,15.30
2022-11-16T10:43:37.295Z,15.30
2022-11-16T10:44:44.722Z,15.30
2022-11-16T10:46:00.482Z,15.30
2022-11-16T10:47:12.594Z,15.30
2022-11-16T10:48:26.825Z,15.50
2022-11-16T10:49:44.933Z,15.30
2022-11-16T10:51:08.215Z,15.50
2022-11-16T10:52:11.427Z,15.40
2022-11-16T10:53:15.434Z,15.40
2022-11-16T10:54:18.833Z,15.40
2022-11-16T10:55:22.960Z,15.50
2022-11-16T10:56:29.936Z,15.50
2022-11-16T10:58:07.091Z,15.60
2022-11-16T10:59:13.998Z,15.70
2022-11-16T11:00:33.630Z,15.70
2022-11-16T11:01:41.220Z,15.70
2022-11-16T11:02:48.898Z,15.80
2022-11-16T11:03:53.205Z,15.80
2022-11-16T11:05:12.332Z,15.80
2022-11-16T11:06:14.250Z,15.80
2022-11-16T11:07:34.335Z,15.80
2022-11-16T11:08:36.151Z,15.80
2022-11-16T11:09:41.802Z,15.80
2022-11-16T11:10:45.051Z,15.80
2022-11-16T11:12:16.839Z,15.80
2022-11-16T11:13:28.153Z,15.90
2022-11-16T11:14:32.583Z,15.80
2022-11-16T11:15:34.837Z,15.80
2022-11-16T11:16:37.074Z,15.70
2022-11-16T11:17:44.438Z,15.70
2022-11-16T11:18:46.209Z,15.70
2022-11-16T11:20:01.133Z,15.70
2022-11-16T11:21:13.103Z,15.70
2022-11-16T11:22:15.316Z,15.70
2022-11-16T11:23:26.149Z,15.70
2022-11-16T11:24:43.898Z,15.80
2022-11-16T11:26:01.913Z,15.80
2022-11-16T11:27:03.934Z,15.80
2022-11-16T11:28:26.767Z,15.80
2022-11-16T11:29:32.886Z,15.90
2022-11-16T11:30:35.616Z,16.10
2022-11-16T11:31:46.816Z,15.90
2022-11-16T11:32:49.581Z,16.00
2022-11-16T11:33:57.153Z,16.00
2022-11-16T11:35:00.492Z,16.00
2022-11-16T11:36:08.634Z,16.00
2022-11-16T11:37:29.629Z,16.00
2022-11-16T11:38:32.840Z,16.10
2022-11-16T11:39:37.091Z,16.10
2022-11-16T11:40:38.997Z,16.10
2022-11-16T11:41:43.766Z,16.10
2022-11-16T11:42:57.588Z,16.10
2022-11-16T11:44:15.396Z,16.10
2022-11-16T11:45:19.275Z,16.00
2022-11-16T11:46:47.278Z,16.10
2022-11-16T11:47:58.554Z,16.10
2022-11-16T11:49:12.501Z,16.20
2022-11-16T11:50:21.511Z,16.20
2022-11-16T11:51:34.071Z,16.20
2022-11-16T11:52:43.036Z,16.20
2022-11-16T11:53:53.967Z,16.30
2022-11-16T11:54:58.557Z,16.30
2022-11-16T11:56:02.979Z,16.30
2022-11-16T11:57:13.158Z,16.30
2022-11-16T11:58:18.534Z,16.50
2022-11-16T11:59:24.164Z,16.40
2022-11-16T12:00:27.855Z,16.40
2022-11-16T12:01:48.470Z,16.50
2022-11-16T12:03:15.920Z,16.50
2022-11-16T12:04:39.365Z,16.50
2022-11-16T12:06:06.402Z,16.50
2022-11-16T12:07:42.474Z,16.50
2022-11-16T12:08:54.336Z,16.50
2022-11-16T12:10:19.040Z,16.40
2022-11-16T12:11:35.147Z,16.40
2022-11-16T12:13:07.320Z,16.40
2022-11-16T12:14:39.553Z,16.40
2022-11-16T12:16:11.767Z,16.40
2022-11-16T12:17:23.659Z,16.40
2022-11-16T12:18:40.475Z,16.40
2022-11-16T12:20:02.053Z,16.40
2022-11-16T12:21:21.304Z,16.40
2022-11-16T12:22:52.812Z,16.30
2022-11-16T12:24:26.671Z,16.30
2022-11-16T12:26:07.768Z,16.30
2022-11-16T12:27:12.196Z,16.30
2022-11-16T12:28:37.690Z,16.30
2022-11-16T12:29:58.426Z,16.30
2022-11-16T12:31:27.317Z,16.30
2022-11-16T12:32:42.029Z,16.30
2022-11-16T12:33:49.352Z,16.30
2022-11-16T12:35:14.067Z,16.30
2022-11-16T12:36:53.830Z,16.30
2022-11-16T12:38:04.817Z,16.30
2022-11-16T12:39:22.140Z,16.30
2022-11-16T12:40:50.318Z,16.30
2022-11-16T12:42:18.445Z,16.20
2022-11-16T12:43:32.593Z,16.20
2022-11-16T12:44:46.686Z,16.20
2022-11-16T12:46:20.089Z,16.20
2022-11-16T12:47:50.392Z,16.30
2022-11-16T12:49:27.832Z,16.30
2022-11-16T12:51:15.539Z,16.30
2022-11-16T12:52:32.269Z,16.30
2022-11-16T12:53:45.514Z,16.30
2022-11-16T12:56:48.695Z,16.20
2022-11-16T12:58:09.639Z,16.20
2022-11-16T12:59:27.022Z,16.20
2022-11-16T13:00:31.426Z,16.10
2022-11-16T13:01:43.261Z,16.10
2022-11-16T13:03:13.121Z,16.20
2022-11-16T13:04:52.150Z,16.00
2022-11-16T13:06:04.891Z,16.00
2022-11-16T13:07:15.925Z,16.00
2022-11-16T13:08:32.143Z,16.00
2022-11-16T13:09:38.452Z,16.10
2022-11-16T13:10:47.622Z,16.10
2022-11-16T13:11:55.950Z,16.20
2022-11-16T13:14:44.836Z,16.10
2022-11-16T13:15:48.123Z,16.10
2022-11-16T13:16:51.347Z,16.20
2022-11-16T13:17:59.743Z,16.20
2022-11-16T13:19:05.801Z,16.10
2022-11-16T13:20:38.884Z,16.10
2022-11-16T13:21:47.748Z,16.10
2022-11-16T13:23:02.196Z,16.20
2022-11-16T13:24:29.560Z,16.20
2022-11-16T13:25:48.029Z,16.20
2022-11-16T13:27:11.889Z,16.20
2022-11-16T13:28:37.147Z,16.30
2022-11-16T13:30:14.546Z,16.30
2022-11-16T13:31:35.446Z,16.40
2022-11-16T13:33:14.480Z,16.40
2022-11-16T13:34:27.813Z,16.50
2022-11-16T13:35:30.078Z,16.50
2022-11-16T13:36:47.646Z,16.50
2022-11-16T13:37:52.169Z,16.60
2022-11-16T13:38:54.356Z,16.60
2022-11-16T13:40:21.395Z,16.60
2022-11-16T13:42:02.218Z,16.70
2022-11-16T13:43:14.500Z,16.80
2022-11-16T13:44:20.472Z,16.70
2022-11-16T13:45:23.547Z,16.70
2022-11-16T13:46:55.370Z,16.70
2022-11-16T13:47:58.910Z,16.80
2022-11-16T13:49:00.665Z,16.80
2022-11-16T13:50:18.728Z,16.70
2022-11-16T13:51:23.361Z,16.70
2022-11-16T13:53:36.472Z,16.70
2022-11-16T13:55:41.959Z,16.90
2022-11-16T13:56:51.528Z,16.70
2022-11-16T13:57:56.535Z,16.60
2022-11-16T13:58:58.859Z,16.80
2022-11-16T14:00:04.098Z,16.60
2022-11-16T14:01:14.762Z,16.60
2022-11-16T14:02:33.524Z,16.50
2022-11-16T14:03:41.480Z,16.50
2022-11-16T14:05:15.016Z,16.50
2022-11-16T14:06:19.926Z,16.50
2022-11-16T14:07:40.466Z,16.40
2022-11-16T14:08:47.883Z,16.40
2022-11-16T14:09:49.634Z,16.50
2022-11-16T14:10:51.635Z,16.30
2022-11-16T14:11:53.366Z,16.30
2022-11-16T14:12:56.080Z,16.30
2022-11-16T14:14:01.202Z,16.30
2022-11-16T14:15:19.228Z,16.30
2022-11-16T14:16:21.774Z,16.30
2022-11-16T14:17:57.681Z,16.40
2022-11-16T14:19:01.326Z,16.50
2022-11-16T14:20:04.884Z,16.50
2022-11-16T14:21:47.605Z,16.60
2022-11-16T14:23:02.956Z,16.60
2022-11-16T14:24:49.906Z,16.70
2022-11-16T14:26:18.717Z,16.80
2022-11-16T14:28:04.204Z,16.80
2022-11-16T14:29:21.637Z,16.90
2022-11-16T14:30:28.585Z,17.00
2022-11-16T14:31:45.550Z,17.00
2022-11-16T14:32:52.244Z,17.00
2022-11-16T14:33:57.302Z,17.00
2022-11-16T14:35:01.576Z,17.00
2022-11-16T14:36:06.163Z,16.90
2022-11-16T14:37:14.967Z,16.90
2022-11-16T14:38:28.516Z,16.80
2022-11-16T14:39:43.672Z,16.80
2022-11-16T14:40:59.155Z,16.80
2022-11-16T14:42:15.040Z,16.80
2022-11-16T14:43:40.094Z,16.80
2022-11-16T14:44:43.900Z,16.90
2022-11-16T14:46:09.351Z,16.90
2022-11-16T14:47:30.560Z,16.90
2022-11-16T14:48:32.580Z,17.00
2022-11-16T14:49:37.658Z,17.00
2022-11-16T14:50:41.652Z,17.00
2022-11-16T14:51:47.577Z,17.00
2022-11-16T14:52:53.455Z,17.10
2022-11-16T14:54:04.903Z,17.20
2022-11-16T14:55:17.867Z,17.10